createdAt,value
2022-11-20T00:00:18.202Z,24.83
2022-11-20T00:02:45.404Z,24.83
2022-11-20T00:05:12.026Z,24.81
2022-11-20T00:07:38.597Z,24.81
2022-11-20T00:10:05.593Z,24.81
2022-11-20T00:12:32.736Z,24.81
2022-11-20T00:14:59.300Z,24.80
2022-11-20T00:17:25.889Z,24.81
2022-11-20T00:19:52.400Z,24.82
2022-11-20T00:22:19.312Z,24.79
2022-11-20T00:24:45.854Z,24.80
2022-11-20T00:27:12.432Z,24.82
2022-11-20T00:29:38.999Z,24.81
2022-11-20T00:32:05.594Z,24.82
2022-11-20T00:34:32.112Z,24.82
2022-11-20T00:36:59.027Z,24.81
2022-11-20T00:39:25.581Z,24.82
2022-11-20T00:41:52.166Z,24.80
2022-11-20T00:44:18.733Z,24.83
2022-11-20T00:46:45.393Z,24.84
2022-11-20T00:49:11.917Z,24.84
2022-11-20T00:51:38.482Z,24.84
2022-11-20T00:54:05.100Z,24.85
2022-11-20T00:56:31.653Z,24.86
2022-11-20T00:59:00.755Z,24.86
2022-11-20T01:01:30.562Z,24.86
2022-11-20T01:03:59.199Z,24.85
2022-11-20T01:06:28.579Z,24.86
2022-11-20T01:08:59.400Z,24.87
2022-11-20T01:11:31.526Z,24.87
2022-11-20T01:13:59.374Z,24.87
2022-11-20T01:16:28.768Z,24.84
2022-11-20T01:18:58.470Z,24.88
2022-11-20T01:21:30.715Z,24.88
2022-11-20T01:23:58.104Z,24.88
2022-11-20T01:26:29.962Z,24.88
2022-11-20T01:28:58.922Z,24.88
2022-11-20T01:31:31.147Z,24.89
2022-11-20T01:34:01.290Z,24.83
2022-11-20T01:36:30.355Z,24.84
2022-11-20T01:38:59.363Z,24.89
2022-11-20T01:41:45.519Z,24.88
2022-11-20T01:44:15.894Z,24.87
2022-11-20T01:47:02.138Z,24.88
2022-11-20T01:49:38.868Z,24.88
2022-11-20T01:52:24.154Z,24.87
2022-11-20T01:55:01.701Z,24.86
2022-11-20T01:57:30.834Z,24.87
2022-11-20T02:00:10.367Z,24.78
2022-11-20T02:02:46.754Z,24.86
2022-11-20T02:05:35.029Z,24.86
2022-11-20T02:08:03.841Z,24.85
2022-11-20T02:10:30.707Z,24.85
2022-11-20T02:13:16.657Z,24.86
2022-11-20T02:15:44.308Z,24.87
2022-11-20T02:18:12.549Z,24.86
2022-11-20T02:20:39.857Z,24.86
2022-11-20T02:23:11.978Z,24.81
2022-11-20T02:25:38.842Z,24.85
2022-11-20T02:28:06.770Z,24.86
2022-11-20T02:30:33.346Z,24.81
2022-11-20T02:33:00.622Z,24.84
2022-11-20T02:35:27.116Z,24.84
2022-11-20T02:37:55.701Z,24.85
2022-11-20T02:40:22.892Z,24.81
2022-11-20T02:42:53.461Z,24.82
2022-11-20T02:45:20.146Z,24.81
2022-11-20T09:16:09.727Z,25.99
2022-11-20T09:18:39.756Z,26.03
2022-11-20T09:21:11.735Z,26.09
2022-11-20T09:23:39.427Z,26.16
2022-11-20T09:26:10.793Z,26.22
2022-11-20T09:28:37.478Z,26.33
2022-11-20T09:31:18.970Z,26.42
2022-11-20T09:33:45.540Z,26.48
2022-11-20T09:36:12.556Z,26.55
2022-11-20T09:38:39.110Z,26.59
2022-11-20T09:41:07.423Z,26.62
2022-11-20T09:43:48.223Z,26.64
2022-11-20T09:46:37.369Z,26.66
2022-11-20T09:49:30.740Z,26.68
2022-11-20T09:52:00.896Z,26.69
2022-11-20T09:54:31.609Z,26.69
2022-11-20T09:57:03.951Z,26.69
2022-11-20T09:59:41.279Z,26.69
2022-11-20T10:02:17.563Z,26.67
2022-11-20T10:05:04.164Z,26.55
2022-11-20T10:07:37.466Z,26.43
2022-11-20T10:10:04.962Z,26.35
2022-11-20T10:12:50.097Z,26.27
2022-11-20T10:15:35.443Z,26.20
2022-11-20T10:18:39.296Z,26.14
2022-11-20T10:23:46.903Z,25.94
2022-11-20T10:26:53.933Z,25.82
2022-11-20T10:29:24.110Z,25.72
2022-11-20T10:31:55.798Z,25.61
2022-11-20T10:34:23.744Z,25.59
2022-11-20T10:36:57.252Z,25.54
2022-11-20T10:39:45.596Z,25.49
2022-11-20T10:42:17.133Z,25.45
2022-11-20T10:45:06.129Z,25.38
2022-11-20T10:47:33.932Z,25.35
2022-11-20T10:50:05.026Z,25.34
2022-11-20T10:52:53.376Z,25.32
2022-11-20T10:55:26.840Z,25.29
2022-11-20T10:58:11.300Z,25.27
2022-11-20T11:00:37.953Z,25.26
2022-11-20T11:03:21.073Z,25.24
2022-11-20T11:06:36.821Z,25.25
2022-11-20T11:09:10.276Z,25.25
2022-11-20T11:11:39.173Z,25.21
2022-11-20T11:14:10.522Z,25.21
2022-11-20T11:16:50.590Z,25.17
2022-11-20T11:19:17.819Z,25.19
2022-11-20T11:21:55.648Z,25.16
2022-11-20T11:24:41.605Z,25.15
2022-11-20T11:27:17.268Z,25.12
2022-11-20T11:29:44.061Z,25.11
2022-11-20T11:32:14.733Z,25.11
2022-11-20T11:34:41.496Z,25.09
2022-11-20T11:37:18.498Z,25.08
2022-11-20T11:39:49.379Z,25.06
2022-11-20T11:42:21.910Z,25.04
2022-11-20T11:45:07.316Z,25.01
2022-11-20T11:47:38.272Z,25.01
2022-11-20T11:50:10.825Z,25.00
2022-11-20T11:52:59.997Z,24.98
2022-11-20T11:55:47.781Z,24.97
2022-11-20T11:58:45.185Z,24.95
2022-11-20T12:01:34.279Z,24.93
2022-11-20T12:04:29.206Z,24.91
2022-11-20T12:07:18.265Z,24.89
2022-11-20T12:09:53.156Z,24.86
2022-11-20T12:12:24.308Z,24.84
2022-11-20T12:14:53.515Z,24.86
2022-11-20T12:17:20.501Z,24.86
2022-11-20T12:19:47.671Z,24.90
2022-11-20T12:22:42.507Z,24.99
2022-11-20T12:25:16.758Z,25.08
2022-11-20T12:28:02.631Z,25.14
2022-11-20T12:30:29.837Z,25.20
2022-11-20T12:33:08.847Z,25.24
2022-11-20T12:35:56.672Z,25.29
2022-11-20T12:38:36.884Z,25.33
2022-11-20T12:41:47.754Z,25.36
2022-11-20T12:44:48.160Z,25.39
2022-11-20T12:47:29.875Z,25.42
2022-11-20T12:50:03.841Z,25.43
2022-11-20T12:52:49.492Z,25.44
2022-11-20T12:55:40.261Z,25.45
2022-11-20T12:58:33.764Z,25.47
2022-11-20T13:01:43.777Z,25.47
2022-11-20T13:04:20.051Z,25.48
2022-11-20T13:06:46.781Z,25.47
2022-11-20T13:09:16.502Z,25.46
2022-11-20T13:12:07.023Z,25.48
2022-11-20T13:14:38.740Z,25.49
2022-11-20T13:17:17.168Z,25.48
2022-11-20T13:19:54.822Z,25.48
2022-11-20T13:22:29.944Z,25.47
2022-11-20T13:24:56.419Z,25.49
2022-11-20T13:27:24.099Z,25.51
2022-11-20T13:30:15.601Z,25.50
2022-11-20T13:33:09.840Z,25.51
2022-11-20T13:35:42.109Z,25.50
2022-11-20T13:38:13.835Z,25.48
2022-11-20T13:40:53.151Z,25.38
2022-11-20T13:43:39.892Z,25.28
2022-11-20T13:46:08.077Z,25.15
2022-11-20T13:48:42.972Z,25.02
2022-11-20T13:51:12.486Z,24.94
2022-11-20T13:53:58.196Z,24.89
2022-11-20T13:56:24.676Z,24.85
2022-11-20T13:58:51.124Z,24.85
2022-11-20T14:01:21.329Z,24.80
2022-11-20T14:04:05.730Z,24.77
2022-11-20T14:06:35.777Z,24.74
2022-11-20T14:09:02.340Z,24.72
2022-11-20T14:11:30.544Z,24.70
2022-11-20T14:14:04.151Z,24.68
2022-11-20T14:16:33.897Z,24.67
2022-11-20T14:19:20.329Z,24.64
2022-11-20T14:21:48.065Z,24.63
2022-11-20T14:24:19.200Z,24.63
2022-11-20T14:26:46.612Z,24.60
2022-11-20T14:29:24.777Z,24.59
2022-11-20T14:31:55.834Z,24.59
2022-11-20T14:34:28.149Z,24.57
2022-11-20T14:36:57.788Z,24.54
2022-11-20T14:39:35.414Z,24.53
2022-11-20T14:42:02.757Z,24.51
2022-11-20T14:44:32.852Z,24.49
2022-11-20T14:47:01.138Z,24.46
2022-11-20T14:49:30.580Z,24.45
2022-11-20T14:52:15.887Z,24.42
2022-11-20T14:54:53.986Z,24.39
2022-11-20T14:57:29.715Z,24.40
2022-11-20T15:00:11.267Z,24.39
2022-11-20T15:02:46.502Z,24.39
2022-11-20T15:05:13.391Z,24.37
2022-11-20T15:07:46.513Z,24.35
2022-11-20T15:10:25.839Z,24.35
2022-11-20T15:13:00.854Z,24.35
2022-11-20T15:15:36.187Z,24.34
2022-11-20T15:18:04.401Z,24.33
2022-11-20T15:20:34.650Z,24.25
2022-11-20T15:23:01.883Z,24.31
2022-11-20T15:25:29.162Z,24.28
2022-11-20T15:27:57.212Z,24.28
2022-11-20T15:30:24.348Z,24.27
2022-11-20T15:32:50.954Z,24.27
2022-11-20T15:35:17.939Z,24.26
2022-11-20T15:37:44.886Z,24.21
2022-11-20T15:40:12.294Z,24.21
2022-11-20T15:42:39.037Z,24.24
2022-11-20T15:45:06.201Z,24.24
2022-11-20T15:47:34.929Z,24.22
2022-11-20T15:50:01.656Z,24.21
2022-11-20T15:52:30.560Z,24.18
2022-11-20T15:55:08.281Z,24.19
2022-11-20T15:57:36.216Z,24.17
2022-11-20T16:00:03.387Z,24.17
2022-11-20T16:02:37.401Z,24.15
2022-11-20T16:05:05.337Z,24.10
2022-11-20T16:07:32.161Z,24.13
2022-11-20T16:09:58.735Z,24.12
2022-11-20T16:12:43.883Z,24.11
2022-11-20T16:15:29.196Z,24.10
2022-11-20T16:17:55.941Z,24.10
2022-11-20T16:20:22.629Z,24.09
2022-11-20T16:22:49.227Z,24.08
2022-11-20T16:25:16.097Z,24.05
2022-11-20T16:27:42.974Z,24.07
2022-11-20T16:30:11.623Z,24.05
2022-11-20T16:32:39.577Z,24.03
2022-11-20T16:35:08.368Z,24.03
2022-11-20T16:37:34.905Z,24.00
2022-11-20T16:40:01.628Z,23.99
2022-11-20T16:42:28.225Z,23.98
2022-11-20T16:44:55.145Z,23.97
2022-11-20T16:47:21.732Z,23.96
2022-11-20T16:49:48.315Z,23.96
2022-11-20T16:52:14.928Z,23.95
2022-11-20T16:54:41.444Z,23.95
2022-11-20T16:57:08.005Z,23.95
2022-11-20T16:59:34.605Z,23.94
2022-11-20T17:02:01.161Z,23.93
2022-11-20T17:04:27.732Z,23.92
2022-11-20T17:06:54.389Z,23.91
2022-11-20T17:09:20.911Z,23.90
2022-11-20T17:11:48.649Z,23.84
2022-11-20T17:14:15.229Z,23.85
2022-11-20T17:16:41.923Z,23.83
2022-11-20T17:19:08.901Z,23.84
2022-11-20T17:21:36.234Z,23.82
2022-11-20T17:24:05.562Z,23.80
2022-11-20T17:26:32.913Z,23.80
2022-11-20T17:29:05.338Z,23.78
2022-11-20T17:31:33.944Z,23.73
2022-11-20T17:34:01.586Z,23.76
2022-11-20T17:36:29.717Z,23.76
2022-11-20T17:38:56.296Z,23.74
2022-11-20T17:41:25.494Z,23.73
2022-11-20T17:44:00.279Z,23.72
2022-11-20T17:46:27.934Z,23.72
2022-11-20T17:48:56.052Z,23.68
2022-11-20T17:51:25.504Z,23.72
2022-11-20T17:53:54.066Z,23.71
2022-11-20T17:56:39.352Z,23.70
2022-11-20T17:59:06.566Z,23.69
2022-11-20T18:01:33.809Z,23.69
2022-11-20T18:04:00.817Z,23.68
2022-11-20T18:06:28.710Z,23.66
2022-11-20T18:08:55.337Z,23.62
2022-11-20T18:11:24.415Z,23.63
2022-11-20T18:14:12.085Z,23.62
2022-11-20T18:16:42.840Z,23.61
2022-11-20T18:19:11.863Z,23.61
2022-11-20T18:21:38.608Z,23.62
2022-11-20T18:24:05.759Z,23.61
2022-11-20T18:26:32.657Z,23.61
2022-11-20T18:29:02.168Z,23.62
2022-11-20T18:31:32.981Z,23.62
2022-11-20T18:33:59.603Z,23.63
2022-11-20T19:39:19.339Z,23.29
2022-11-20T19:41:46.006Z,23.32
2022-11-20T19:44:14.264Z,23.42
2022-11-20T19:46:41.419Z,23.53
2022-11-20T19:49:10.172Z,23.63
2022-11-20T20:18:15.835Z,23.79
2022-11-20T20:20:42.789Z,23.83
2022-11-20T20:23:09.367Z,23.92
2022-11-20T20:25:38.157Z,24.01
2022-11-20T20:28:05.236Z,24.14
2022-11-20T20:30:32.104Z,24.26
2022-11-20T20:32:58.686Z,24.36
2022-11-20T20:35:25.258Z,24.47
2022-11-20T20:37:52.871Z,24.55
2022-11-20T20:40:20.553Z,24.59
2022-11-20T20:42:47.205Z,24.71
2022-11-20T20:45:13.889Z,24.78
2022-11-20T20:47:41.808Z,24.83
2022-11-20T20:50:10.735Z,24.91
